Snow/Ice From: 16-12-2017 16:00 Until: 17-12-2017 16:00 warning for: Snow/Ice Level: Yellow info button

Although rather usual in this region, locally or potentially dangerous phenomena are expected. (such as local winds, summer thunderstorms, rising streams or high waves) Be aware and pay attention to the latest weather updates, especially if you carry out activities exposed to weather or close to a stream or shoreline. 


Meteo18 Weather Cam more information Meteo18 Weather Cam


Thunder radar more information blitzortung!


warning for Snow/Ice more information rain snow radar


Visit our other weather sites:

Template documentation
and downloads

And another site



Weather Underground History page Text

Daily Summary for November 16, 2017 Units:  Both    English   Metric
« Previous Day
Next Day »
Daily Weekly Monthly Yearly Custom
  High: Low: Average:
Temperature: 39.6 °F /  4.2 °C 34.2 °F /  1.2 °C 36.9 °F /  2.7 °C
Dew Point: 38.5 °F /  3.6 °C 33.4 °F /  0.8 °C 36.1 °F /  2.3 °C
Humidity: 100 % 95 % 97 %
Wind Speed: 4 mph /  6.4 km/h - 0.6 mph /  0.9 km/h
Wind Gust: 7 mph /  11.3 km/h - -
Wind:- - SSE
Pressure: 30.3 in /  1026.6 hPa 30.2 in /  1023.6 hPa -
Precipitation: 0 in /  0.0 mm    
Historical Graphs
 
 
Tabular Data for November 16, 2017
Time Temperature Dew Point Pressure Wind Wind Speed Wind Gust Humidity Rainfall Rate (Hourly)
00:02 39 °F /  3.9 °C 37.9 °F /  3.3 °C 30.3 in /  1024.6 hPa North 1 mph /  1.6 km/h 5 mph /  8.0 km/h 96 % 0 in /  0.0 mm
00:07 39.2 °F /  4.0 °C 38.1 °F /  3.4 °C 30.3 in /  1024.6 hPa Calm   5 mph /  8.0 km/h 96 % 0 in /  0.0 mm
00:12 39.4 °F /  4.1 °C 38.3 °F /  3.5 °C 30.3 in /  1024.6 hPa NNW 2 mph /  3.2 km/h 5 mph /  8.0 km/h 96 % 0 in /  0.0 mm
00:17 39.6 °F /  4.2 °C 38.5 °F /  3.6 °C 30.3 in /  1024.6 hPa Calm   5 mph /  8.0 km/h 96 % 0 in /  0.0 mm
00:22 39.6 °F /  4.2 °C 38.3 °F /  3.5 °C 30.3 in /  1024.6 hPa NNW 2 mph /  3.2 km/h 5 mph /  8.0 km/h 95 % 0 in /  0.0 mm
00:27 39.6 °F /  4.2 °C 38.3 °F /  3.5 °C 30.3 in /  1024.6 hPa NE 1 mph /  1.6 km/h 7 mph /  11.3 km/h 95 % 0 in /  0.0 mm
00:32 39.4 °F /  4.1 °C 38.1 °F /  3.4 °C 30.3 in /  1024.3 hPa North 1 mph /  1.6 km/h 7 mph /  11.3 km/h 95 % 0 in /  0.0 mm
00:37 39.4 °F /  4.1 °C 38.1 °F /  3.4 °C 30.3 in /  1024.6 hPa North 1 mph /  1.6 km/h 4 mph /  6.4 km/h 95 % 0 in /  0.0 mm
00:42 39.2 °F /  4.0 °C 37.9 °F /  3.3 °C 30.3 in /  1024.6 hPa North 2 mph /  3.2 km/h 4 mph /  6.4 km/h 95 % 0 in /  0.0 mm
00:47 39.2 °F /  4.0 °C 37.9 °F /  3.3 °C 30.3 in /  1024.6 hPa ENE 2 mph /  3.2 km/h 4 mph /  6.4 km/h 95 % 0 in /  0.0 mm
00:52 39.2 °F /  4.0 °C 37.9 °F /  3.3 °C 30.3 in /  1024.3 hPa NNE 4 mph /  6.4 km/h 6 mph /  9.7 km/h 95 % 0 in /  0.0 mm
00:57 39 °F /  3.9 °C 37.8 °F /  3.2 °C 30.3 in /  1024.3 hPa NNW 2 mph /  3.2 km/h 6 mph /  9.7 km/h 95 % 0 in /  0.0 mm
01:02 39 °F /  3.9 °C 37.8 °F /  3.2 °C 30.3 in /  1024.3 hPa Calm   6 mph /  9.7 km/h 95 % 0 in /  0.0 mm
01:07 38.8 °F /  3.8 °C 37.6 °F /  3.1 °C 30.3 in /  1024.3 hPa NNE 3 mph /  4.8 km/h 5 mph /  8.0 km/h 95 % 0 in /  0.0 mm
01:12 38.7 °F /  3.7 °C 37.4 °F /  3.0 °C 30.3 in /  1024.3 hPa North 2 mph /  3.2 km/h 5 mph /  8.0 km/h 95 % 0 in /  0.0 mm
01:17 38.7 °F /  3.7 °C 37.4 °F /  3.0 °C 30.3 in /  1024.3 hPa North 2 mph /  3.2 km/h 5 mph /  8.0 km/h 95 % 0 in /  0.0 mm
01:22 38.7 °F /  3.7 °C 37.4 °F /  3.0 °C 30.3 in /  1024.3 hPa Calm   4 mph /  6.4 km/h 95 % 0 in /  0.0 mm
01:32 38.5 °F /  3.6 °C 37.2 °F /  2.9 °C 30.3 in /  1024.3 hPa North 1 mph /  1.6 km/h 3 mph /  4.8 km/h 95 % 0 in /  0.0 mm
01:37 38.5 °F /  3.6 °C 37.2 °F /  2.9 °C 30.3 in /  1024.3 hPa NNW 1 mph /  1.6 km/h 3 mph /  4.8 km/h 95 % 0 in /  0.0 mm
01:42 38.5 °F /  3.6 °C 37.2 °F /  2.9 °C 30.3 in /  1024.3 hPa NNW 3 mph /  4.8 km/h 3 mph /  4.8 km/h 95 % 0 in /  0.0 mm
01:47 38.5 °F /  3.6 °C 37.2 °F /  2.9 °C 30.3 in /  1024.3 hPa North 4 mph /  6.4 km/h 6 mph /  9.7 km/h 95 % 0 in /  0.0 mm
01:52 38.5 °F /  3.6 °C 37.4 °F /  3.0 °C 30.3 in /  1024.3 hPa NNE 4 mph /  6.4 km/h 7 mph /  11.3 km/h 96 % 0 in /  0.0 mm
01:57 38.5 °F /  3.6 °C 37.4 °F /  3.0 °C 30.3 in /  1024.3 hPa North 4 mph /  6.4 km/h 7 mph /  11.3 km/h 96 % 0 in /  0.0 mm
02:02 38.7 °F /  3.7 °C 37.6 °F /  3.1 °C 30.3 in /  1024.3 hPa North 1 mph /  1.6 km/h 7 mph /  11.3 km/h 96 % 0 in /  0.0 mm
02:07 38.7 °F /  3.7 °C 37.6 °F /  3.1 °C 30.2 in /  1023.9 hPa NNE 3 mph /  4.8 km/h 7 mph /  11.3 km/h 96 % 0 in /  0.0 mm
02:12 38.7 °F /  3.7 °C 37.6 °F /  3.1 °C 30.2 in /  1023.9 hPa NNW 1 mph /  1.6 km/h 7 mph /  11.3 km/h 96 % 0 in /  0.0 mm
02:17 38.7 °F /  3.7 °C 37.6 °F /  3.1 °C 30.2 in /  1023.9 hPa NW 1 mph /  1.6 km/h 7 mph /  11.3 km/h 96 % 0 in /  0.0 mm
02:22 38.7 °F /  3.7 °C 37.6 °F /  3.1 °C 30.2 in /  1023.9 hPa North 3 mph /  4.8 km/h 7 mph /  11.3 km/h 96 % 0 in /  0.0 mm
02:32 38.5 °F /  3.6 °C 37.4 °F /  3.0 °C 30.2 in /  1023.9 hPa NNW 1 mph /  1.6 km/h 6 mph /  9.7 km/h 96 % 0 in /  0.0 mm
02:37 38.5 °F /  3.6 °C 37.4 °F /  3.0 °C 30.2 in /  1023.9 hPa Calm   6 mph /  9.7 km/h 96 % 0 in /  0.0 mm
02:42 38.5 °F /  3.6 °C 37.4 °F /  3.0 °C 30.2 in /  1023.9 hPa North 3 mph /  4.8 km/h 6 mph /  9.7 km/h 96 % 0 in /  0.0 mm
02:52 38.3 °F /  3.5 °C 37.2 °F /  2.9 °C 30.2 in /  1023.9 hPa NNW 1 mph /  1.6 km/h 4 mph /  6.4 km/h 96 % 0 in /  0.0 mm
02:57 38.3 °F /  3.5 °C 37.2 °F /  2.9 °C 30.2 in /  1023.9 hPa Calm   4 mph /  6.4 km/h 96 % 0 in /  0.0 mm
03:02 38.3 °F /  3.5 °C 37.2 °F /  2.9 °C 30.2 in /  1023.9 hPa Calm   4 mph /  6.4 km/h 96 % 0 in /  0.0 mm
03:12 38.3 °F /  3.5 °C 37.2 °F /  2.9 °C 30.3 in /  1024.3 hPa Calm   3 mph /  4.8 km/h 96 % 0 in /  0.0 mm
03:22 38.3 °F /  3.5 °C 37.2 °F /  2.9 °C 30.2 in /  1023.9 hPa NE 1 mph /  1.6 km/h 4 mph /  6.4 km/h 96 % 0 in /  0.0 mm
03:32 38.1 °F /  3.4 °C 37 °F /  2.8 °C 30.2 in /  1023.9 hPa NNE 1 mph /  1.6 km/h 4 mph /  6.4 km/h 96 % 0 in /  0.0 mm
03:37 38.1 °F /  3.4 °C 37 °F /  2.8 °C 30.2 in /  1023.6 hPa Calm   4 mph /  6.4 km/h 96 % 0 in /  0.0 mm
03:42 37.9 °F /  3.3 °C 36.9 °F /  2.7 °C 30.2 in /  1023.9 hPa East 1 mph /  1.6 km/h 4 mph /  6.4 km/h 96 % 0 in /  0.0 mm
03:52 37.2 °F /  2.9 °C 37.2 °F /  2.9 °C 30.2 in /  1023.6 hPa Calm   4 mph /  6.4 km/h 100 % 0 in /  0.0 mm
03:57 37.2 °F /  2.9 °C 37.2 °F /  2.9 °C 30.2 in /  1023.6 hPa Calm   2 mph /  3.2 km/h 100 % 0 in /  0.0 mm
08:52 34.2 °F /  1.2 °C 33.4 °F /  0.8 °C 30.3 in /  1024.9 hPa Calm   -998.7 mph /  -1607.4 km/h 97 % 0 in /  0.0 mm
08:57 34.2 °F /  1.2 °C 33.4 °F /  0.8 °C 30.3 in /  1024.9 hPa Calm   3 mph /  4.8 km/h 97 % 0 in /  0.0 mm
09:02 34.3 °F /  1.3 °C 33.6 °F /  0.9 °C 30.3 in /  1024.9 hPa NNE 1 mph /  1.6 km/h 3 mph /  4.8 km/h 97 % 0 in /  0.0 mm
09:07 34.3 °F /  1.3 °C 33.6 °F /  0.9 °C 30.3 in /  1024.9 hPa Calm   3 mph /  4.8 km/h 97 % 0 in /  0.0 mm
09:12 34.5 °F /  1.4 °C 33.8 °F /  1.0 °C 30.3 in /  1024.9 hPa Calm   3 mph /  4.8 km/h 97 % 0 in /  0.0 mm
09:17 34.5 °F /  1.4 °C 33.8 °F /  1.0 °C 30.3 in /  1024.9 hPa Calm   1 mph /  1.6 km/h 97 % 0 in /  0.0 mm
09:22 34.7 °F /  1.5 °C 34 °F /  1.1 °C 30.3 in /  1024.9 hPa Calm   1 mph /  1.6 km/h 97 % 0 in /  0.0 mm
09:27 34.7 °F /  1.5 °C 34 °F /  1.1 °C 30.3 in /  1024.9 hPa Calm   3 mph /  4.8 km/h 97 % 0 in /  0.0 mm
09:32 34.7 °F /  1.5 °C 34 °F /  1.1 °C 30.3 in /  1024.9 hPa Calm   3 mph /  4.8 km/h 97 % 0 in /  0.0 mm
09:42 35.1 °F /  1.7 °C 34.3 °F /  1.3 °C 30.3 in /  1024.9 hPa Calm   3 mph /  4.8 km/h 97 % 0 in /  0.0 mm
09:47 35.1 °F /  1.7 °C 34.3 °F /  1.3 °C 30.3 in /  1024.9 hPa East 1 mph /  1.6 km/h   97 % 0 in /  0.0 mm
09:57 35.2 °F /  1.8 °C 34.5 °F /  1.4 °C 30.3 in /  1024.9 hPa Calm   2 mph /  3.2 km/h 97 % 0 in /  0.0 mm
10:02 35.2 °F /  1.8 °C 34.5 °F /  1.4 °C 30.3 in /  1024.9 hPa NNE 1 mph /  1.6 km/h 2 mph /  3.2 km/h 97 % 0 in /  0.0 mm
10:07 35.2 °F /  1.8 °C 34.5 °F /  1.4 °C 30.3 in /  1024.9 hPa NNE 1 mph /  1.6 km/h 2 mph /  3.2 km/h 97 % 0 in /  0.0 mm
10:12 35.1 °F /  1.7 °C 34.3 °F /  1.3 °C 30.3 in /  1025.3 hPa NE 1 mph /  1.6 km/h 2 mph /  3.2 km/h 97 % 0 in /  0.0 mm
10:17 35.2 °F /  1.8 °C 34.5 °F /  1.4 °C 30.3 in /  1025.3 hPa NNE 1 mph /  1.6 km/h 2 mph /  3.2 km/h 97 % 0 in /  0.0 mm
10:22 35.1 °F /  1.7 °C 34.3 °F /  1.3 °C 30.3 in /  1025.3 hPa Calm   2 mph /  3.2 km/h 97 % 0 in /  0.0 mm
10:32 35.2 °F /  1.8 °C 34.5 °F /  1.4 °C 30.3 in /  1025.3 hPa Calm   2 mph /  3.2 km/h 97 % 0 in /  0.0 mm
10:37 35.4 °F /  1.9 °C 34.7 °F /  1.5 °C 30.3 in /  1025.3 hPa Calm   2 mph /  3.2 km/h 97 % 0 in /  0.0 mm
10:42 35.4 °F /  1.9 °C 34.7 °F /  1.5 °C 30.3 in /  1025.3 hPa Calm   2 mph /  3.2 km/h 97 % 0 in /  0.0 mm
10:47 35.4 °F /  1.9 °C 34.7 °F /  1.5 °C 30.3 in /  1024.9 hPa South 1 mph /  1.6 km/h 2 mph /  3.2 km/h 97 % 0 in /  0.0 mm
10:57 35.4 °F /  1.9 °C 34.7 °F /  1.5 °C 30.3 in /  1024.9 hPa SE 1 mph /  1.6 km/h 5 mph /  8.0 km/h 97 % 0 in /  0.0 mm
11:02 35.6 °F /  2.0 °C 34.9 °F /  1.6 °C 30.3 in /  1025.3 hPa SSE 2 mph /  3.2 km/h 5 mph /  8.0 km/h 97 % 0 in /  0.0 mm
11:07 35.4 °F /  1.9 °C 34.7 °F /  1.5 °C 30.3 in /  1025.3 hPa Calm   5 mph /  8.0 km/h 97 % 0 in /  0.0 mm
11:17 35.2 °F /  1.8 °C 34.5 °F /  1.4 °C 30.3 in /  1025.3 hPa SSE 1 mph /  1.6 km/h 4 mph /  6.4 km/h 97 % 0 in /  0.0 mm
11:22 35.2 °F /  1.8 °C 34.5 °F /  1.4 °C 30.3 in /  1025.3 hPa Calm   4 mph /  6.4 km/h 97 % 0 in /  0.0 mm
11:32 35.2 °F /  1.8 °C 34.5 °F /  1.4 °C 30.3 in /  1025.3 hPa Calm   3 mph /  4.8 km/h 97 % 0 in /  0.0 mm
11:37 35.4 °F /  1.9 °C 34.7 °F /  1.5 °C 30.3 in /  1025.3 hPa SSW 2 mph /  3.2 km/h 3 mph /  4.8 km/h 97 % 0 in /  0.0 mm
11:42 35.2 °F /  1.8 °C 34.5 °F /  1.4 °C 30.3 in /  1025.3 hPa Calm   3 mph /  4.8 km/h 97 % 0 in /  0.0 mm
11:47 35.2 °F /  1.8 °C 34.5 °F /  1.4 °C 30.3 in /  1025.3 hPa Calm   4 mph /  6.4 km/h 97 % 0 in /  0.0 mm
11:52 35.2 °F /  1.8 °C 34.5 °F /  1.4 °C 30.3 in /  1024.9 hPa SW 1 mph /  1.6 km/h 4 mph /  6.4 km/h 97 % 0 in /  0.0 mm
12:02 35.2 °F /  1.8 °C 34.5 °F /  1.4 °C 30.3 in /  1024.9 hPa SSE 1 mph /  1.6 km/h 3 mph /  4.8 km/h 97 % 0 in /  0.0 mm
12:07 35.2 °F /  1.8 °C 34.5 °F /  1.4 °C 30.3 in /  1024.9 hPa SSE 1 mph /  1.6 km/h 3 mph /  4.8 km/h 97 % 0 in /  0.0 mm
12:17 35.2 °F /  1.8 °C 34.5 °F /  1.4 °C 30.3 in /  1024.9 hPa SW 1 mph /  1.6 km/h 3 mph /  4.8 km/h 97 % 0 in /  0.0 mm
12:22 35.2 °F /  1.8 °C 34.5 °F /  1.4 °C 30.3 in /  1024.9 hPa SW 1 mph /  1.6 km/h 3 mph /  4.8 km/h 97 % 0 in /  0.0 mm
12:32 35.6 °F /  2.0 °C 34.9 °F /  1.6 °C 30.3 in /  1024.9 hPa SW 2 mph /  3.2 km/h 2 mph /  3.2 km/h 97 % 0 in /  0.0 mm
12:42 35.6 °F /  2.0 °C 34.9 °F /  1.6 °C 30.3 in /  1024.9 hPa South 1 mph /  1.6 km/h 4 mph /  6.4 km/h 97 % 0 in /  0.0 mm
12:52 35.4 °F /  1.9 °C 34.7 °F /  1.5 °C 30.3 in /  1024.9 hPa SSW 2 mph /  3.2 km/h 4 mph /  6.4 km/h 97 % 0 in /  0.0 mm
13:02 35.4 °F /  1.9 °C 34.7 °F /  1.5 °C 30.3 in /  1024.9 hPa Calm   4 mph /  6.4 km/h 97 % 0 in /  0.0 mm
13:12 35.8 °F /  2.1 °C 35.1 °F /  1.7 °C 30.3 in /  1024.9 hPa SW 1 mph /  1.6 km/h 3 mph /  4.8 km/h 97 % 0 in /  0.0 mm
13:17 35.6 °F /  2.0 °C 34.9 °F /  1.6 °C 30.3 in /  1024.9 hPa Calm   3 mph /  4.8 km/h 97 % 0 in /  0.0 mm
13:22 35.8 °F /  2.1 °C 35.1 °F /  1.7 °C 30.3 in /  1025.3 hPa SSW 1 mph /  1.6 km/h 2 mph /  3.2 km/h 97 % 0 in /  0.0 mm
13:27 36 °F /  2.2 °C 35.2 °F /  1.8 °C 30.3 in /  1025.3 hPa SSW 2 mph /  3.2 km/h 3 mph /  4.8 km/h 97 % 0 in /  0.0 mm
13:32 36.1 °F /  2.3 °C 35.4 °F /  1.9 °C 30.3 in /  1025.3 hPa Calm   3 mph /  4.8 km/h 97 % 0 in /  0.0 mm
13:37 36.1 °F /  2.3 °C 35.4 °F /  1.9 °C 30.3 in /  1025.3 hPa Calm   3 mph /  4.8 km/h 97 % 0 in /  0.0 mm
13:42 36.3 °F /  2.4 °C 35.6 °F /  2.0 °C 30.3 in /  1024.9 hPa Calm   3 mph /  4.8 km/h 97 % 0 in /  0.0 mm
13:47 36.3 °F /  2.4 °C 35.6 °F /  2.0 °C 30.3 in /  1024.9 hPa Calm   2 mph /  3.2 km/h 97 % 0 in /  0.0 mm
13:52 36.9 °F /  2.7 °C 36.1 °F /  2.3 °C 30.3 in /  1024.9 hPa Calm   2 mph /  3.2 km/h 97 % 0 in /  0.0 mm
13:57 37 °F /  2.8 °C 36.3 °F /  2.4 °C 30.3 in /  1024.9 hPa SSE 2 mph /  3.2 km/h 2 mph /  3.2 km/h 97 % 0 in /  0.0 mm
14:02 37 °F /  2.8 °C 36.3 °F /  2.4 °C 30.3 in /  1024.9 hPa SE 1 mph /  1.6 km/h 2 mph /  3.2 km/h 97 % 0 in /  0.0 mm
14:07 37.2 °F /  2.9 °C 36.5 °F /  2.5 °C 30.3 in /  1024.9 hPa Calm   2 mph /  3.2 km/h 97 % 0 in /  0.0 mm
14:12 37.2 °F /  2.9 °C 36.5 °F /  2.5 °C 30.3 in /  1024.9 hPa Calm   2 mph /  3.2 km/h 97 % 0 in /  0.0 mm
14:17 37.2 °F /  2.9 °C 36.5 °F /  2.5 °C 30.3 in /  1024.9 hPa South 2 mph /  3.2 km/h 2 mph /  3.2 km/h 97 % 0 in /  0.0 mm
14:22 37.2 °F /  2.9 °C 36.5 °F /  2.5 °C 30.3 in /  1024.9 hPa SE 1 mph /  1.6 km/h 3 mph /  4.8 km/h 97 % 0 in /  0.0 mm
14:27 37.2 °F /  2.9 °C 36.5 °F /  2.5 °C 30.3 in /  1024.9 hPa Calm   3 mph /  4.8 km/h 97 % 0 in /  0.0 mm
14:32 37.2 °F /  2.9 °C 36.5 °F /  2.5 °C 30.3 in /  1024.9 hPa Calm   3 mph /  4.8 km/h 97 % 0 in /  0.0 mm
14:42 37.4 °F /  3.0 °C 36.7 °F /  2.6 °C 30.3 in /  1024.9 hPa ENE 1 mph /  1.6 km/h 3 mph /  4.8 km/h 97 % 0 in /  0.0 mm
14:47 37.6 °F /  3.1 °C 36.9 °F /  2.7 °C 30.3 in /  1024.9 hPa SSE 2 mph /  3.2 km/h 3 mph /  4.8 km/h 97 % 0 in /  0.0 mm
14:52 37.6 °F /  3.1 °C 36.9 °F /  2.7 °C 30.3 in /  1024.9 hPa Calm   3 mph /  4.8 km/h 97 % 0 in /  0.0 mm
14:57 37.8 °F /  3.2 °C 37 °F /  2.8 °C 30.3 in /  1024.9 hPa Calm   2 mph /  3.2 km/h 97 % 0 in /  0.0 mm
15:02 37.8 °F /  3.2 °C 37 °F /  2.8 °C 30.3 in /  1024.9 hPa Calm   2 mph /  3.2 km/h 97 % 0 in /  0.0 mm
15:07 37.8 °F /  3.2 °C 37 °F /  2.8 °C 30.3 in /  1024.9 hPa Calm   2 mph /  3.2 km/h 97 % 0 in /  0.0 mm
15:12 37.8 °F /  3.2 °C 37 °F /  2.8 °C 30.3 in /  1024.9 hPa Calm   2 mph /  3.2 km/h 97 % 0 in /  0.0 mm
15:17 37.8 °F /  3.2 °C 37 °F /  2.8 °C 30.3 in /  1024.9 hPa Calm   1 mph /  1.6 km/h 97 % 0 in /  0.0 mm
15:22 37.8 °F /  3.2 °C 37 °F /  2.8 °C 30.3 in /  1024.9 hPa Calm     97 % 0 in /  0.0 mm
15:32 37.8 °F /  3.2 °C 37 °F /  2.8 °C 30.3 in /  1024.9 hPa Calm     97 % 0 in /  0.0 mm
15:37 37.8 °F /  3.2 °C 37 °F /  2.8 °C 30.3 in /  1024.9 hPa Calm     97 % 0 in /  0.0 mm
15:42 37.9 °F /  3.3 °C 37.2 °F /  2.9 °C 30.3 in /  1024.9 hPa Calm     97 % 0 in /  0.0 mm
15:52 37.9 °F /  3.3 °C 37.2 °F /  2.9 °C 30.3 in /  1024.9 hPa Calm     97 % 0 in /  0.0 mm
15:57 37.9 °F /  3.3 °C 37.2 °F /  2.9 °C 30.3 in /  1024.9 hPa Calm     97 % 0 in /  0.0 mm
16:02 37.9 °F /  3.3 °C 37.2 °F /  2.9 °C 30.3 in /  1024.9 hPa Calm     97 % 0 in /  0.0 mm
16:07 37.9 °F /  3.3 °C 37.2 °F /  2.9 °C 30.3 in /  1025.3 hPa Calm   1 mph /  1.6 km/h 97 % 0 in /  0.0 mm
16:12 37.9 °F /  3.3 °C 37.2 °F /  2.9 °C 30.3 in /  1024.9 hPa Calm   1 mph /  1.6 km/h 97 % 0 in /  0.0 mm
16:17 37.9 °F /  3.3 °C 37.2 °F /  2.9 °C 30.3 in /  1024.9 hPa Calm   1 mph /  1.6 km/h 97 % 0 in /  0.0 mm
16:22 37.9 °F /  3.3 °C 37.2 °F /  2.9 °C 30.3 in /  1025.3 hPa Calm   1 mph /  1.6 km/h 97 % 0 in /  0.0 mm
16:32 37.8 °F /  3.2 °C 37 °F /  2.8 °C 30.3 in /  1024.9 hPa Calm   1 mph /  1.6 km/h 97 % 0 in /  0.0 mm
16:37 37.8 °F /  3.2 °C 37 °F /  2.8 °C 30.3 in /  1024.9 hPa SE 1 mph /  1.6 km/h 2 mph /  3.2 km/h 97 % 0 in /  0.0 mm
16:42 37.8 °F /  3.2 °C 37 °F /  2.8 °C 30.3 in /  1024.9 hPa SE 1 mph /  1.6 km/h 2 mph /  3.2 km/h 97 % 0 in /  0.0 mm
16:47 37.8 °F /  3.2 °C 37 °F /  2.8 °C 30.3 in /  1024.9 hPa Calm   2 mph /  3.2 km/h 97 % 0 in /  0.0 mm
16:52 37.8 °F /  3.2 °C 37 °F /  2.8 °C 30.3 in /  1024.9 hPa SE 1 mph /  1.6 km/h 2 mph /  3.2 km/h 97 % 0 in /  0.0 mm
16:57 37.8 °F /  3.2 °C 37 °F /  2.8 °C 30.3 in /  1024.9 hPa SE 1 mph /  1.6 km/h 2 mph /  3.2 km/h 97 % 0 in /  0.0 mm
17:02 37.6 °F /  3.1 °C 36.9 °F /  2.7 °C 30.3 in /  1024.9 hPa SSE 1 mph /  1.6 km/h 3 mph /  4.8 km/h 97 % 0 in /  0.0 mm
17:12 37.6 °F /  3.1 °C 36.9 °F /  2.7 °C 30.3 in /  1024.9 hPa Calm   3 mph /  4.8 km/h 97 % 0 in /  0.0 mm
17:17 37.6 °F /  3.1 °C 36.9 °F /  2.7 °C 30.3 in /  1024.9 hPa Calm   3 mph /  4.8 km/h 97 % 0 in /  0.0 mm
17:22 37.6 °F /  3.1 °C 36.9 °F /  2.7 °C 30.3 in /  1024.9 hPa Calm   2 mph /  3.2 km/h 97 % 0 in /  0.0 mm
17:27 37.6 °F /  3.1 °C 36.9 °F /  2.7 °C 30.3 in /  1024.9 hPa Calm   2 mph /  3.2 km/h 97 % 0 in /  0.0 mm
17:32 37.6 °F /  3.1 °C 36.9 °F /  2.7 °C 30.3 in /  1024.9 hPa Calm   2 mph /  3.2 km/h 97 % 0 in /  0.0 mm
17:37 37.6 °F /  3.1 °C 36.9 °F /  2.7 °C 30.3 in /  1024.9 hPa Calm   2 mph /  3.2 km/h 97 % 0 in /  0.0 mm
17:42 37.6 °F /  3.1 °C 36.9 °F /  2.7 °C 30.3 in /  1025.3 hPa Calm   2 mph /  3.2 km/h 97 % 0 in /  0.0 mm
17:47 37.6 °F /  3.1 °C 36.9 °F /  2.7 °C 30.3 in /  1025.3 hPa Calm   1 mph /  1.6 km/h 97 % 0 in /  0.0 mm
17:52 37.6 °F /  3.1 °C 36.9 °F /  2.7 °C 30.3 in /  1025.3 hPa Calm   1 mph /  1.6 km/h 97 % 0 in /  0.0 mm
18:02 37.6 °F /  3.1 °C 36.9 °F /  2.7 °C 30.3 in /  1025.3 hPa Calm   1 mph /  1.6 km/h 97 % 0 in /  0.0 mm
18:12 37.6 °F /  3.1 °C 36.9 °F /  2.7 °C 30.3 in /  1025.3 hPa Calm     97 % 0 in /  0.0 mm
18:17 37.6 °F /  3.1 °C 36.9 °F /  2.7 °C 30.3 in /  1025.3 hPa Calm     97 % 0 in /  0.0 mm
18:22 37.6 °F /  3.1 °C 36.9 °F /  2.7 °C 30.3 in /  1025.6 hPa Calm     97 % 0 in /  0.0 mm
18:27 37.6 °F /  3.1 °C 36.9 °F /  2.7 °C 30.3 in /  1025.6 hPa Calm   2 mph /  3.2 km/h 97 % 0 in /  0.0 mm
18:37 37.6 °F /  3.1 °C 36.9 °F /  2.7 °C 30.3 in /  1025.6 hPa Calm   2 mph /  3.2 km/h 97 % 0 in /  0.0 mm
18:42 37.6 °F /  3.1 °C 36.9 °F /  2.7 °C 30.3 in /  1025.6 hPa ENE 1 mph /  1.6 km/h 2 mph /  3.2 km/h 97 % 0 in /  0.0 mm
18:52 37.4 °F /  3.0 °C 36.7 °F /  2.6 °C 30.3 in /  1025.6 hPa East 2 mph /  3.2 km/h 2 mph /  3.2 km/h 97 % 0 in /  0.0 mm
18:57 37.4 °F /  3.0 °C 36.7 °F /  2.6 °C 30.3 in /  1025.6 hPa Calm   2 mph /  3.2 km/h 97 % 0 in /  0.0 mm
19:02 37.2 °F /  2.9 °C 36.5 °F /  2.5 °C 30.3 in /  1025.6 hPa Calm   3 mph /  4.8 km/h 97 % 0 in /  0.0 mm
19:07 37.2 °F /  2.9 °C 36.5 °F /  2.5 °C 30.3 in /  1025.6 hPa Calm   3 mph /  4.8 km/h 97 % 0 in /  0.0 mm
19:12 37.2 °F /  2.9 °C 36.5 °F /  2.5 °C 30.3 in /  1025.6 hPa Calm   3 mph /  4.8 km/h 97 % 0 in /  0.0 mm
19:17 37 °F /  2.8 °C 36.3 °F /  2.4 °C 30.3 in /  1025.6 hPa Calm   1 mph /  1.6 km/h 97 % 0 in /  0.0 mm
19:22 37 °F /  2.8 °C 36.3 °F /  2.4 °C 30.3 in /  1026.0 hPa Calm   1 mph /  1.6 km/h 97 % 0 in /  0.0 mm
19:32 37 °F /  2.8 °C 36.3 °F /  2.4 °C 30.3 in /  1026.0 hPa NNE 1 mph /  1.6 km/h 2 mph /  3.2 km/h 97 % 0 in /  0.0 mm
19:37 37 °F /  2.8 °C 36.3 °F /  2.4 °C 30.3 in /  1026.0 hPa Calm   2 mph /  3.2 km/h 97 % 0 in /  0.0 mm
19:42 37 °F /  2.8 °C 36.3 °F /  2.4 °C 30.3 in /  1026.0 hPa Calm   2 mph /  3.2 km/h 97 % 0 in /  0.0 mm
19:52 36.9 °F /  2.7 °C 36.1 °F /  2.3 °C 30.3 in /  1025.6 hPa Calm   2 mph /  3.2 km/h 97 % 0 in /  0.0 mm
19:57 36.9 °F /  2.7 °C 36.1 °F /  2.3 °C 30.3 in /  1026.0 hPa Calm   2 mph /  3.2 km/h 97 % 0 in /  0.0 mm
20:02 36.9 °F /  2.7 °C 36.1 °F /  2.3 °C 30.3 in /  1026.0 hPa Calm   2 mph /  3.2 km/h 97 % 0 in /  0.0 mm
20:12 36.9 °F /  2.7 °C 36.1 °F /  2.3 °C 30.3 in /  1026.0 hPa Calm   1 mph /  1.6 km/h 97 % 0 in /  0.0 mm
20:17 36.9 °F /  2.7 °C 36.1 °F /  2.3 °C 30.3 in /  1026.0 hPa Calm   1 mph /  1.6 km/h 97 % 0 in /  0.0 mm
20:22 36.7 °F /  2.6 °C 36 °F /  2.2 °C 30.3 in /  1026.0 hPa Calm     97 % 0 in /  0.0 mm
20:32 36.7 °F /  2.6 °C 36 °F /  2.2 °C 30.3 in /  1026.0 hPa Calm     97 % 0 in /  0.0 mm
20:37 36.7 °F /  2.6 °C 36 °F /  2.2 °C 30.3 in /  1026.0 hPa Calm     97 % 0 in /  0.0 mm
20:42 36.7 °F /  2.6 °C 36 °F /  2.2 °C 30.3 in /  1026.0 hPa Calm   1 mph /  1.6 km/h 97 % 0 in /  0.0 mm
20:52 36.7 °F /  2.6 °C 36 °F /  2.2 °C 30.3 in /  1026.0 hPa Calm   1 mph /  1.6 km/h 97 % 0 in /  0.0 mm
20:57 36.7 °F /  2.6 °C 36 °F /  2.2 °C 30.3 in /  1026.0 hPa East 1 mph /  1.6 km/h 1 mph /  1.6 km/h 97 % 0 in /  0.0 mm
21:02 36.7 °F /  2.6 °C 36 °F /  2.2 °C 30.3 in /  1026.0 hPa Calm   2 mph /  3.2 km/h 97 % 0 in /  0.0 mm
21:12 36.7 °F /  2.6 °C 36 °F /  2.2 °C 30.3 in /  1026.0 hPa NE 1 mph /  1.6 km/h 3 mph /  4.8 km/h 97 % 0 in /  0.0 mm
21:17 36.5 °F /  2.5 °C 35.8 °F /  2.1 °C 30.3 in /  1026.0 hPa Calm   3 mph /  4.8 km/h 97 % 0 in /  0.0 mm
21:27 36.3 °F /  2.4 °C 35.6 °F /  2.0 °C 30.3 in /  1026.0 hPa Calm   1 mph /  1.6 km/h 97 % 0 in /  0.0 mm
21:32 36.3 °F /  2.4 °C 35.6 °F /  2.0 °C 30.3 in /  1026.0 hPa East 1 mph /  1.6 km/h 2 mph /  3.2 km/h 97 % 0 in /  0.0 mm
21:37 36.3 °F /  2.4 °C 35.6 °F /  2.0 °C 30.3 in /  1026.0 hPa ENE 1 mph /  1.6 km/h 3 mph /  4.8 km/h 97 % 0 in /  0.0 mm
21:47 36.3 °F /  2.4 °C 35.6 °F /  2.0 °C 30.3 in /  1026.0 hPa Calm   2 mph /  3.2 km/h 97 % 0 in /  0.0 mm
21:52 36.1 °F /  2.3 °C 35.4 °F /  1.9 °C 30.3 in /  1026.3 hPa NE 1 mph /  1.6 km/h 1 mph /  1.6 km/h 97 % 0 in /  0.0 mm
21:57 36.1 °F /  2.3 °C 35.4 °F /  1.9 °C 30.3 in /  1026.3 hPa Calm   1 mph /  1.6 km/h 97 % 0 in /  0.0 mm
22:02 36.1 °F /  2.3 °C 35.4 °F /  1.9 °C 30.3 in /  1026.3 hPa Calm   1 mph /  1.6 km/h 97 % 0 in /  0.0 mm
22:07 36.1 °F /  2.3 °C 35.4 °F /  1.9 °C 30.3 in /  1026.3 hPa NE 1 mph /  1.6 km/h 1 mph /  1.6 km/h 97 % 0 in /  0.0 mm
22:12 36.1 °F /  2.3 °C 35.4 °F /  1.9 °C 30.3 in /  1026.3 hPa East 1 mph /  1.6 km/h 2 mph /  3.2 km/h 97 % 0 in /  0.0 mm
22:17 36.1 °F /  2.3 °C 35.4 °F /  1.9 °C 30.3 in /  1026.3 hPa ENE 1 mph /  1.6 km/h 2 mph /  3.2 km/h 97 % 0 in /  0.0 mm
22:22 36 °F /  2.2 °C 35.2 °F /  1.8 °C 30.3 in /  1026.3 hPa Calm   3 mph /  4.8 km/h 97 % 0 in /  0.0 mm
22:27 36 °F /  2.2 °C 35.2 °F /  1.8 °C 30.3 in /  1026.3 hPa Calm   3 mph /  4.8 km/h 97 % 0 in /  0.0 mm
22:32 36 °F /  2.2 °C 35.2 °F /  1.8 °C 30.3 in /  1026.3 hPa Calm   3 mph /  4.8 km/h 97 % 0 in /  0.0 mm
22:37 36 °F /  2.2 °C 35.2 °F /  1.8 °C 30.3 in /  1026.3 hPa Calm   1 mph /  1.6 km/h 97 % 0 in /  0.0 mm
22:42 36 °F /  2.2 °C 35.2 °F /  1.8 °C 30.3 in /  1026.3 hPa Calm     97 % 0 in /  0.0 mm
22:47 36 °F /  2.2 °C 35.2 °F /  1.8 °C 30.3 in /  1026.3 hPa Calm     97 % 0 in /  0.0 mm
22:52 36 °F /  2.2 °C 35.2 °F /  1.8 °C 30.3 in /  1026.0 hPa East 1 mph /  1.6 km/h 1 mph /  1.6 km/h 97 % 0 in /  0.0 mm
22:57 36 °F /  2.2 °C 35.2 °F /  1.8 °C 30.3 in /  1026.0 hPa Calm   2 mph /  3.2 km/h 97 % 0 in /  0.0 mm
23:02 36 °F /  2.2 °C 35.2 °F /  1.8 °C 30.3 in /  1026.0 hPa Calm   2 mph /  3.2 km/h 97 % 0 in /  0.0 mm
23:07 36 °F /  2.2 °C 35.2 °F /  1.8 °C 30.3 in /  1026.3 hPa Calm   2 mph /  3.2 km/h 97 % 0 in /  0.0 mm
23:12 36 °F /  2.2 °C 35.2 °F /  1.8 °C 30.3 in /  1026.3 hPa Calm   2 mph /  3.2 km/h 97 % 0 in /  0.0 mm
23:17 36.1 °F /  2.3 °C 35.4 °F /  1.9 °C 30.3 in /  1026.3 hPa Calm   1 mph /  1.6 km/h 97 % 0 in /  0.0 mm
23:22 36.1 °F /  2.3 °C 35.4 °F /  1.9 °C 30.3 in /  1026.3 hPa Calm   1 mph /  1.6 km/h 97 % 0 in /  0.0 mm
23:32 36.1 °F /  2.3 °C 35.4 °F /  1.9 °C 30.3 in /  1026.3 hPa Calm     97 % 0 in /  0.0 mm
23:37 36.1 °F /  2.3 °C 35.4 °F /  1.9 °C 30.3 in /  1026.3 hPa Calm     97 % 0 in /  0.0 mm
23:42 36.1 °F /  2.3 °C 35.4 °F /  1.9 °C 30.3 in /  1026.3 hPa Calm     97 % 0 in /  0.0 mm
23:47 36.1 °F /  2.3 °C 35.4 °F /  1.9 °C 30.3 in /  1026.3 hPa Calm     97 % 0 in /  0.0 mm
23:57 36.1 °F /  2.3 °C 35.4 °F /  1.9 °C 30.3 in /  1026.6 hPa Calm     97 % 0 in /  0.0 mm
Meteo18
Compliments of Weather Underground - 4 mb

Script developed by  Jim McMurry - jmcmurry@mwt.net Adapted for the template by  Wim van der Kuil - Leuven-Template.eu

You find our weather info also at:

European Weather Network

Weather Underground

Equipment we use:

Weather-station
Davis Vue

Weather-program
Meteohub

Weather-server
Raspberry PI 2 B+

Provider
1 and 1

Davis Vue

Meteohub

Raspberry PI 2 B+

1 and 1